Time;durP1;ratioP1;P1;durP2;ratioP2;P2;SDS_P1;SDS_P2;PMS_P1;PMS_P2;Temp;Humidity;BMP_temperature;BMP_pressure;BME280_temperature;BME280_humidity;BME280_pressure;Samples;Min_cycle;Max_cycle;Signal;HPM_P1;HPM_P2
2022/01/15 00:01:37;;;;;;;29.52;12.68;;;;;;;5.77;63.28;102802.47;5022331;28;20082;-82
2022/01/15 00:04:03;;;;;;;26.50;12.05;;;;;;;5.74;63.57;102800.63;5024691;28;20068;-82
2022/01/15 00:06:28;;;;;;;34.78;13.02;;;;;;;5.72;63.59;102804.00;5027760;28;20438;-82
2022/01/15 00:08:54;;;;;;;33.15;12.10;;;;;;;5.92;62.20;102798.63;5025116;28;20045;-82
2022/01/15 00:11:19;;;;;;;31.38;12.95;;;;;;;5.85;62.51;102796.72;5025738;28;20398;-82
2022/01/15 00:13:55;;;;;;;30.90;13.32;;;;;;;5.66;63.71;102807.28;5026566;28;20441;-82
2022/01/15 00:16:30;;;;;;;34.00;12.57;;;;;;;5.56;64.24;102805.25;5025661;28;20068;-82
2022/01/15 00:19:05;;;;;;;31.17;11.82;;;;;;;5.55;63.80;102805.19;5028538;28;20038;-82
2022/01/15 00:21:31;;;;;;;28.08;11.32;;;;;;;5.59;63.93;102804.47;5026297;28;20034;-83
2022/01/15 00:23:56;;;;;;;32.17;12.23;;;;;;;5.62;63.80;102800.28;5028895;28;20080;-82
2022/01/15 00:26:22;;;;;;;29.58;11.95;;;;;;;5.39;64.53;102803.81;5027724;28;20029;-83
2022/01/15 00:28:47;;;;;;;33.83;13.45;;;;;;;5.65;63.60;102794.34;5027869;28;20403;-82
2022/01/15 00:31:13;;;;;;;32.70;12.52;;;;;;;5.64;63.58;102793.47;5030516;28;20069;-83
2022/01/15 00:33:38;;;;;;;35.03;13.68;;;;;;;5.67;63.42;102784.94;5026795;28;20040;-82
2022/01/15 00:36:04;;;;;;;33.40;11.95;;;;;;;5.82;63.15;102780.25;5025096;28;20045;-82
2022/01/15 00:38:29;;;;;;;36.92;12.88;;;;;;;5.67;63.89;102782.38;5024667;28;20040;-82
2022/01/15 00:40:55;;;;;;;29.33;12.05;;;;;;;5.65;63.83;102786.59;5027537;28;20032;-82
2022/01/15 00:43:21;;;;;;;33.97;12.48;;;;;;;5.55;64.37;102788.00;5025064;28;20041;-82
2022/01/15 00:45:47;;;;;;;33.90;12.27;;;;;;;5.68;63.66;102771.22;5025679;28;20052;-83
2022/01/15 00:48:13;;;;;;;34.50;13.40;;;;;;;5.56;64.12;102781.16;5026030;28;20079;-82
2022/01/15 00:50:38;;;;;;;31.73;12.27;;;;;;;5.78;63.37;102778.41;5025201;28;20029;-82
2022/01/15 00:53:04;;;;;;;30.27;12.35;;;;;;;5.59;64.07;102787.28;5023763;28;20151;-82
2022/01/15 00:55:30;;;;;;;32.47;11.65;;;;;;;5.62;63.70;102782.25;5027629;28;20065;-82
2022/01/15 00:57:55;;;;;;;29.90;11.48;;;;;;;5.49;63.89;102782.66;5024085;28;20045;-82
2022/01/15 01:00:23;;;;;;;31.80;11.60;;;;;;;5.60;63.89;102778.72;5026263;28;20033;-83
2022/01/15 01:02:49;;;;;;;36.08;12.63;;;;;;;5.47;64.87;102781.75;5055884;28;20041;-82
2022/01/15 01:05:15;;;;;;;28.98;10.75;;;;;;;5.54;63.84;102783.69;5026946;28;20033;-82
2022/01/15 01:07:41;;;;;;;29.83;11.02;;;;;;;5.65;63.00;102772.03;5028110;28;20134;-82
2022/01/15 01:13:08;;;;;;;31.70;11.40;;;;;;;5.38;64.83;102773.72;5029192;28;20075;-82
2022/01/15 01:23:25;;;;;;;25.85;9.20;;;;;;;5.40;63.66;102770.38;5024100;28;20328;-82
2022/01/15 01:25:57;;;;;;;24.73;9.02;;;;;;;5.43;63.38;102772.16;5026836;28;20036;-82
2022/01/15 01:28:30;;;;;;;26.98;9.18;;;;;;;5.46;63.44;102765.41;5026717;28;20056;-83
2022/01/15 01:31:10;;;;;;;27.02;10.25;;;;;;;5.57;62.92;102775.16;5026014;28;20036;-83
2022/01/15 01:33:40;;;;;;;23.92;10.65;;;;;;;5.57;63.16;102775.16;5024911;28;20568;-82
2022/01/15 01:36:17;;;;;;;24.55;8.82;;;;;;;5.31;63.41;102767.50;5028876;28;20076;-83
2022/01/15 01:41:17;;;;;;;26.85;9.07;;;;;;;5.46;63.35;102759.38;5030154;28;20120;-82
2022/01/15 01:43:48;;;;;;;24.70;9.63;;;;;;;5.41;63.41;102759.25;5027753;28;20561;-82
2022/01/15 01:48:53;;;;;;;25.85;9.40;;;;;;;5.41;63.30;102756.66;5028750;28;20426;-82
2022/01/15 01:51:30;;;;;;;21.58;8.98;;;;;;;5.33;63.18;102758.09;5027835;28;20033;-83
2022/01/15 01:53:58;;;;;;;23.70;8.98;;;;;;;5.50;63.11;102758.66;5056998;28;20042;-82
2022/01/15 01:56:24;;;;;;;21.13;9.10;;;;;;;5.28;64.39;102763.94;5026600;28;20037;-83
2022/01/15 01:58:49;;;;;;;20.50;8.48;;;;;;;5.44;63.72;102745.56;5027634;28;20036;-82
2022/01/15 02:01:15;;;;;;;25.73;9.20;;;;;;;5.56;62.29;102745.94;5029724;28;20030;-83
2022/01/15 02:03:40;;;;;;;19.95;8.43;;;;;;;5.40;62.99;102742.00;5027557;28;20045;-82
2022/01/15 02:06:06;;;;;;;24.05;8.77;;;;;;;5.21;64.61;102749.97;5028258;28;20040;-82
2022/01/15 02:08:37;;;;;;;26.52;9.93;;;;;;;5.38;62.91;102738.53;5027383;28;20036;-83
2022/01/15 02:11:05;;;;;;;19.48;8.38;;;;;;;5.65;61.54;102727.31;5030789;28;20080;-82
2022/01/15 02:13:33;;;;;;;18.35;8.68;;;;;;;5.39;62.68;102727.38;5026678;28;20402;-82
2022/01/15 02:15:59;;;;;;;20.58;8.20;;;;;;;5.44;62.73;102728.38;5027414;28;20052;-82
2022/01/15 02:18:26;;;;;;;20.88;8.13;;;;;;;5.60;62.06;102719.41;5029748;28;20073;-82
2022/01/15 02:23:31;;;;;;;23.98;8.93;;;;;;;5.44;62.19;102724.94;5028195;28;20044;-82
2022/01/15 02:23:46;;;;;;;17.48;6.93;;;;;;;5.33;62.59;102718.56;5026043;28;20037;-83
2022/01/15 02:26:39;;;;;;;19.92;8.45;;;;;;;5.51;62.29;102718.25;5026914;28;20033;-82
2022/01/15 02:29:07;;;;;;;18.88;7.30;;;;;;;5.37;62.27;102718.72;5028425;28;20521;-82
2022/01/15 02:31:33;;;;;;;18.25;6.90;;;;;;;5.41;61.40;102715.44;5028247;28;20033;-82
2022/01/15 02:34:01;;;;;;;19.27;7.30;;;;;;;5.36;61.63;102710.94;5027422;28;20091;-83
2022/01/15 02:36:29;;;;;;;20.67;7.13;;;;;;;5.41;61.27;102705.13;5031258;28;20030;-82
2022/01/15 02:38:56;;;;;;;17.13;6.40;;;;;;;5.41;61.78;102696.50;5034105;28;20041;-83
2022/01/15 02:41:31;;;;;;;15.82;6.28;;;;;;;5.43;61.65;102707.72;5034656;28;20029;-82
2022/01/15 02:43:58;;;;;;;14.52;6.47;;;;;;;5.35;61.75;102706.63;5034267;28;20034;-82
2022/01/15 02:49:04;;;;;;;16.55;6.63;;;;;;;5.41;61.19;102701.66;5029926;28;20029;-83
2022/01/15 02:51:33;;;;;;;14.57;6.10;;;;;;;5.29;61.73;102703.84;5026609;28;20436;-83
2022/01/15 02:53:59;;;;;;;16.35;6.78;;;;;;;5.26;61.46;102701.19;5026931;28;20067;-82
2022/01/15 02:56:29;;;;;;;14.07;6.05;;;;;;;5.22;62.21;102700.19;5022924;28;20149;-83
2022/01/15 02:58:55;;;;;;;15.15;6.80;;;;;;;5.44;62.20;102701.75;5029835;28;20025;-83
2022/01/15 03:01:21;;;;;;;15.93;6.97;;;;;;;5.17;62.43;102708.63;5026827;28;20037;-82
2022/01/15 03:03:47;;;;;;;15.68;6.70;;;;;;;5.30;61.44;102701.31;5027367;28;20497;-83
2022/01/15 03:06:16;;;;;;;14.77;6.40;;;;;;;5.20;61.78;102698.41;5024942;28;20060;-83
2022/01/15 03:08:44;;;;;;;17.90;6.47;;;;;;;5.37;61.17;102700.69;5025424;28;20042;-83
2022/01/15 03:11:11;;;;;;;16.10;5.85;;;;;;;5.37;61.51;102697.22;5056631;28;20402;-82
2022/01/15 03:13:38;;;;;;;13.02;6.03;;;;;;;5.44;61.05;102694.03;5024020;28;20421;-82
2022/01/15 03:16:05;;;;;;;14.15;6.07;;;;;;;5.22;61.97;102689.00;5025725;28;20060;-82
2022/01/15 03:18:31;;;;;;;17.08;7.00;;;;;;;5.15;61.77;102681.94;5024566;28;20399;-83
2022/01/15 03:20:56;;;;;;;19.55;6.85;;;;;;;5.37;61.49;102682.66;5027232;28;20045;-82
2022/01/15 03:23:22;;;;;;;14.20;5.88;;;;;;;5.33;61.18;102678.22;5009802;28;20410;-82
2022/01/15 03:25:47;;;;;;;20.15;7.20;;;;;;;5.28;61.46;102674.63;5025371;28;20033;-83
2022/01/15 03:28:13;;;;;;;13.18;5.75;;;;;;;5.29;61.15;102683.25;5059400;28;20037;-83
2022/01/15 03:30:39;;;;;;;13.52;5.93;;;;;;;5.37;60.61;102679.19;5009245;28;20072;-82
2022/01/15 03:33:05;;;;;;;12.38;5.65;;;;;;;5.05;61.88;102680.78;5026275;28;20037;-82
2022/01/15 03:35:31;;;;;;;11.90;5.72;;;;;;;5.27;61.03;102678.03;5026798;28;20094;-82
2022/01/15 03:37:57;;;;;;;12.18;6.00;;;;;;;5.19;61.32;102674.34;5026893;28;20064;-82
2022/01/15 03:40:22;;;;;;;11.43;5.22;;;;;;;5.32;60.67;102667.88;5027333;28;20048;-83
2022/01/15 03:42:48;;;;;;;12.48;5.45;;;;;;;5.36;60.53;102669.69;5026914;28;20037;-82
2022/01/15 03:45:14;;;;;;;12.18;5.90;;;;;;;5.20;61.07;102682.94;5026890;28;20041;-83
2022/01/15 03:47:42;;;;;;;14.00;6.00;;;;;;;5.25;60.60;102676.22;5026877;28;20024;-82
2022/01/15 03:50:08;;;;;;;14.20;6.03;;;;;;;5.14;61.22;102677.59;5023032;28;20028;-82
2022/01/15 03:52:33;;;;;;;12.60;5.15;;;;;;;5.28;61.19;102674.63;5027689;28;20056;-82
2022/01/15 03:54:59;;;;;;;14.90;6.68;;;;;;;5.23;61.18;102677.91;5024971;28;20033;-82
2022/01/15 03:57:24;;;;;;;11.90;5.28;;;;;;;5.24;61.54;102671.88;5025768;28;20495;-82
2022/01/15 03:59:50;;;;;;;11.93;5.75;;;;;;;5.20;61.26;102667.50;5025312;28;20110;-83
2022/01/15 04:02:15;;;;;;;14.88;6.32;;;;;;;4.98;61.69;102659.91;5026325;28;20745;-82
2022/01/15 04:04:41;;;;;;;12.07;5.57;;;;;;;5.26;61.21;102649.66;5055378;28;20042;-83
2022/01/15 04:07:06;;;;;;;13.30;6.18;;;;;;;5.13;61.59;102648.38;5022072;28;20041;-82
2022/01/15 04:09:32;;;;;;;14.13;6.20;;;;;;;5.09;61.85;102648.25;5021411;28;20057;-82
2022/01/15 04:11:58;;;;;;;16.10;6.68;;;;;;;5.17;61.38;102647.66;5024366;28;20441;-83
2022/01/15 04:14:24;;;;;;;15.73;6.20;;;;;;;5.15;61.38;102648.44;5026965;28;20057;-82
2022/01/15 04:16:49;;;;;;;15.55;6.10;;;;;;;5.14;62.60;102639.84;5024827;28;20064;-82
2022/01/15 04:19:15;;;;;;;15.68;5.90;;;;;;;5.15;60.85;102633.00;5026349;28;20071;-82
2022/01/15 04:21:41;;;;;;;12.55;5.45;;;;;;;5.26;61.49;102632.50;5025560;28;20033;-82
2022/01/15 04:24:06;;;;;;;13.93;6.32;;;;;;;5.20;61.32;102627.16;5022833;28;20512;-82
2022/01/15 04:26:32;;;;;;;14.07;6.22;;;;;;;5.15;61.38;102620.97;5023773;28;20033;-82
2022/01/15 04:29:04;;;;;;;15.77;6.07;;;;;;;5.44;59.75;102614.13;5025833;28;20652;-82
2022/01/15 04:31:51;;;;;;;12.82;6.15;;;;;;;5.26;60.50;102623.88;5025652;28;20558;-82
2022/01/15 04:34:24;;;;;;;15.05;5.88;;;;;;;5.11;61.18;102618.25;5024455;28;20053;-82
2022/01/15 04:36:52;;;;;;;13.15;5.68;;;;;;;5.41;60.37;102622.66;5029528;28;20057;-82
2022/01/15 04:39:19;;;;;;;15.15;5.30;;;;;;;5.34;60.63;102610.41;5023611;28;20565;-82
2022/01/15 04:41:47;;;;;;;12.30;5.10;;;;;;;5.40;59.83;102613.16;5026664;28;20434;-82
2022/01/15 04:44:13;;;;;;;11.35;4.82;;;;;;;5.29;60.67;102613.66;5025746;28;20296;-83
2022/01/15 04:46:39;;;;;;;9.60;4.53;;;;;;;5.02;61.19;102612.81;5025761;28;20393;-82
2022/01/15 04:49:06;;;;;;;9.75;4.63;;;;;;;5.36;59.95;102602.69;5021435;28;20644;-82
2022/01/15 04:51:32;;;;;;;10.35;4.72;;;;;;;5.12;60.74;102607.13;5025663;28;20037;-83
2022/01/15 04:53:58;;;;;;;10.98;4.90;;;;;;;5.22;61.12;102596.25;5024526;28;20402;-83
2022/01/15 04:56:23;;;;;;;11.20;5.10;;;;;;;5.12;61.21;102597.69;5026448;28;20033;-82
2022/01/15 04:58:50;;;;;;;12.50;5.20;;;;;;;5.21;61.12;102600.53;5025746;28;20033;-82
2022/01/15 05:01:15;;;;;;;11.75;5.07;;;;;;;5.17;61.27;102597.84;5025199;28;20038;-82
2022/01/15 05:03:41;;;;;;;10.10;4.90;;;;;;;5.26;61.12;102596.41;5033133;28;20077;-83
2022/01/15 05:06:06;;;;;;;10.82;4.47;;;;;;;5.34;60.31;102597.50;5033643;28;20053;-82
2022/01/15 05:08:32;;;;;;;8.93;4.05;;;;;;;5.25;60.93;102604.09;5033123;28;20026;-82
2022/01/15 05:11:09;;;;;;;10.88;5.07;;;;;;;5.35;59.97;102594.13;5030881;28;20025;-82
2022/01/15 05:13:36;;;;;;;8.75;4.40;;;;;;;5.44;60.43;102596.09;5026447;28;20038;-83
2022/01/15 05:16:01;;;;;;;9.13;4.72;;;;;;;5.25;60.60;102604.09;5028724;28;20037;-82
2022/01/15 05:18:27;;;;;;;7.60;4.32;;;;;;;5.33;60.56;102594.88;5026735;28;20556;-83
2022/01/15 05:20:52;;;;;;;9.40;4.32;;;;;;;5.30;60.79;102599.94;5028740;28;20084;-82
2022/01/15 05:23:17;;;;;;;10.57;5.03;;;;;;;5.28;60.32;102589.59;5029217;28;20053;-83
2022/01/15 05:25:46;;;;;;;10.18;4.90;;;;;;;5.25;60.82;102594.66;5029233;28;20095;-82
2022/01/15 05:28:12;;;;;;;8.85;4.57;;;;;;;5.44;60.03;102594.34;5027993;28;20033;-82
2022/01/15 05:30:37;;;;;;;9.60;4.80;;;;;;;5.43;60.03;102594.31;5033033;28;20478;-83
2022/01/15 05:33:03;;;;;;;9.75;4.80;;;;;;;5.29;60.50;102590.47;5029550;28;20467;-82
2022/01/15 05:35:29;;;;;;;10.27;4.80;;;;;;;5.38;59.89;102590.75;5028690;28;20061;-82
2022/01/15 05:37:56;;;;;;;7.47;4.07;;;;;;;5.24;60.13;102594.59;5029067;28;20394;-82
2022/01/15 05:40:22;;;;;;;9.13;4.68;;;;;;;5.46;59.85;102584.97;5029050;28;20042;-83
2022/01/15 05:42:48;;;;;;;9.75;5.00;;;;;;;5.47;59.52;102581.56;5027884;28;20044;-82
2022/01/15 05:45:14;;;;;;;8.40;4.20;;;;;;;5.45;59.77;102584.94;5026776;28;20046;-82
2022/01/15 05:47:40;;;;;;;11.77;5.38;;;;;;;5.43;59.75;102594.31;5028901;28;20128;-82
2022/01/15 05:50:06;;;;;;;8.70;4.15;;;;;;;5.33;60.10;102595.75;5028425;28;20105;-83
2022/01/15 05:52:32;;;;;;;10.90;4.55;;;;;;;5.32;60.07;102590.56;5029610;28;20042;-83
2022/01/15 05:54:57;;;;;;;8.95;4.85;;;;;;;5.30;59.62;102581.91;5029567;28;20144;-82
2022/01/15 05:57:22;;;;;;;8.13;4.57;;;;;;;5.41;59.37;102583.09;5028106;28;20044;-83
2022/01/15 05:59:51;;;;;;;8.43;4.30;;;;;;;5.34;60.21;102586.31;5024037;28;20053;-82
2022/01/15 06:02:17;;;;;;;9.80;4.38;;;;;;;5.27;59.73;102584.38;5028838;28;20025;-82
2022/01/15 06:04:43;;;;;;;9.15;4.45;;;;;;;5.12;60.99;102583.97;5028144;28;20639;-82
2022/01/15 06:07:08;;;;;;;8.73;4.20;;;;;;;5.24;60.29;102569.72;5029703;28;20038;-82
2022/01/15 06:09:34;;;;;;;8.57;4.35;;;;;;;5.07;60.59;102572.63;5026042;28;20065;-82
2022/01/15 06:12:02;;;;;;;10.88;4.85;;;;;;;5.41;59.77;102567.66;5025929;28;20037;-82
2022/01/15 06:14:29;;;;;;;8.07;4.68;;;;;;;5.53;59.30;102569.69;5030056;28;20107;-82
2022/01/15 06:16:55;;;;;;;10.38;4.40;;;;;;;5.54;59.05;102572.28;5024474;28;20167;-82
2022/01/15 06:19:21;;;;;;;7.65;4.22;;;;;;;5.50;59.61;102567.91;5008701;28;20132;-82
2022/01/15 06:21:46;;;;;;;11.60;5.05;;;;;;;5.32;60.12;102570.84;5025218;28;20056;-82
2022/01/15 06:24:12;;;;;;;10.30;4.35;;;;;;;5.46;59.62;102569.53;5027480;28;20034;-82
2022/01/15 06:26:37;;;;;;;8.45;4.78;;;;;;;5.08;61.02;102571.81;5026276;28;20062;-82
2022/01/15 06:29:02;;;;;;;12.55;4.80;;;;;;;5.41;59.64;102571.09;5025490;28;20486;-82
2022/01/15 06:31:30;;;;;;;8.85;4.93;;;;;;;5.26;60.11;102560.34;5029537;28;20093;-82
2022/01/15 06:33:56;;;;;;;9.50;4.88;;;;;;;5.54;58.94;102564.56;5022644;28;20037;-82
2022/01/15 06:36:22;;;;;;;9.27;4.25;;;;;;;5.42;59.32;102557.38;5024247;28;20037;-83
2022/01/15 06:38:47;;;;;;;9.32;4.32;;;;;;;5.39;59.65;102561.56;5023858;28;20068;-82
2022/01/15 06:41:16;;;;;;;8.77;4.55;;;;;;;5.36;60.34;102558.88;5041859;28;20434;-82
2022/01/15 06:43:41;;;;;;;7.50;4.43;;;;;;;5.21;60.19;102553.28;5022341;28;20426;-83
2022/01/15 06:46:07;;;;;;;9.00;4.07;;;;;;;5.17;60.43;102561.78;5022376;28;20075;-82
2022/01/15 06:48:32;;;;;;;7.93;4.22;;;;;;;5.28;59.81;102566.41;5025395;28;20034;-83
2022/01/15 06:50:58;;;;;;;7.30;4.38;;;;;;;5.37;59.47;102558.06;5025397;28;20110;-82
2022/01/15 06:53:24;;;;;;;10.75;5.25;;;;;;;5.37;59.93;102564.09;5025254;28;20037;-82
2022/01/15 06:55:51;;;;;;;8.00;4.32;;;;;;;5.27;60.53;102563.78;5028930;28;20128;-83
2022/01/15 06:58:17;;;;;;;8.60;4.57;;;;;;;5.37;59.58;102563.22;5024123;28;20666;-82
2022/01/15 07:00:43;;;;;;;12.05;6.25;;;;;;;5.30;59.74;102561.28;5027048;28;20029;-82
2022/01/15 07:03:08;;;;;;;13.25;6.57;;;;;;;5.44;59.69;102560.00;5025058;28;20038;-84
2022/01/15 07:05:34;;;;;;;9.45;5.65;;;;;;;5.50;59.13;102559.28;5028554;28;20040;-82
2022/01/15 07:07:59;;;;;;;9.90;4.95;;;;;;;5.08;60.59;102561.50;5029869;28;20045;-82
2022/01/15 07:10:28;;;;;;;7.63;4.57;;;;;;;5.28;60.56;102561.25;5029169;28;20052;-83
2022/01/15 07:12:53;;;;;;;5.40;4.25;;;;;;;5.40;59.98;102545.28;5033065;28;20037;-82
2022/01/15 07:15:19;;;;;;;7.38;4.15;;;;;;;5.43;59.87;102545.34;5025025;28;20042;-83
2022/01/15 07:17:46;;;;;;;7.10;3.70;;;;;;;5.56;59.10;102541.44;5025517;28;20053;-83
2022/01/15 07:20:13;;;;;;;6.53;4.10;;;;;;;5.12;60.16;102541.00;5029426;28;20088;-83
2022/01/15 07:22:39;;;;;;;8.23;4.50;;;;;;;5.22;60.16;102544.75;5028388;28;20172;-82
2022/01/15 07:25:06;;;;;;;6.95;3.97;;;;;;;5.34;60.01;102538.25;5024976;28;20113;-83
2022/01/15 07:27:31;;;;;;;7.50;4.20;;;;;;;5.36;59.97;102543.44;5026178;28;20041;-83
2022/01/15 07:29:57;;;;;;;7.82;3.72;;;;;;;5.35;59.73;102537.44;5023034;28;20045;-83
2022/01/15 07:32:22;;;;;;;8.38;3.90;;;;;;;5.48;59.43;102534.34;5022543;28;20041;-82
2022/01/15 07:34:47;;;;;;;5.90;3.63;;;;;;;5.47;58.85;102535.16;5025066;28;20112;-83
2022/01/15 07:37:14;;;;;;;6.00;3.53;;;;;;;5.26;59.49;102532.00;5027286;28;20406;-83
2022/01/15 07:39:39;;;;;;;5.03;3.28;;;;;;;5.40;59.44;102540.13;5026995;28;20033;-83
2022/01/15 07:42:06;;;;;;;7.03;3.83;;;;;;;5.27;60.26;102541.47;5019449;28;20050;-83
2022/01/15 07:44:31;;;;;;;6.05;3.92;;;;;;;5.31;60.77;102542.44;5025815;28;20036;-82
2022/01/15 07:46:57;;;;;;;9.32;4.20;;;;;;;5.18;60.57;102542.88;5025036;28;20026;-82
2022/01/15 07:49:22;;;;;;;7.43;4.05;;;;;;;5.33;60.19;102531.31;5007035;28;20442;-82
2022/01/15 07:51:48;;;;;;;7.40;4.30;;;;;;;5.35;60.35;102536.53;5022431;28;20037;-82
2022/01/15 07:54:13;;;;;;;6.85;3.83;;;;;;;5.38;59.66;102532.34;5024018;28;20102;-83
2022/01/15 07:56:38;;;;;;;6.88;3.72;;;;;;;5.38;60.23;102523.75;5024336;28;20116;-82
2022/01/15 07:59:04;;;;;;;9.25;4.30;;;;;;;5.19;61.34;102527.50;5025807;28;20834;-82
2022/01/15 08:01:29;;;;;;;5.68;3.38;;;;;;;5.44;60.07;102526.50;5025606;28;20460;-82
2022/01/15 08:03:55;;;;;;;7.45;4.05;;;;;;;5.52;59.65;102522.41;5026462;28;20045;-83
2022/01/15 08:06:20;;;;;;;6.93;3.88;;;;;;;5.44;60.45;102526.50;5028132;28;20548;-83
2022/01/15 08:08:46;;;;;;;8.05;4.78;;;;;;;5.29;60.60;102532.09;5024819;28;20116;-82
2022/01/15 08:11:11;;;;;;;7.63;4.95;;;;;;;5.46;59.83;102528.28;5029006;28;20026;-82
2022/01/15 08:13:37;;;;;;;8.25;4.75;;;;;;;5.38;60.23;102537.50;5023077;28;20045;-82
2022/01/15 08:16:04;;;;;;;8.68;5.10;;;;;;;5.43;59.74;102524.75;5024565;28;20048;-82
2022/01/15 08:18:30;;;;;;;9.82;5.35;;;;;;;5.33;60.36;102530.44;5025015;28;20526;-82
2022/01/15 08:20:56;;;;;;;10.15;5.47;;;;;;;5.35;60.03;102523.66;5027703;28;20049;-83
2022/01/15 08:23:21;;;;;;;7.90;4.53;;;;;;;5.18;60.98;102527.44;5025509;28;20057;-80
2022/01/15 08:25:47;;;;;;;9.40;4.75;;;;;;;5.22;60.76;102530.16;5027438;28;20627;-82
2022/01/15 08:28:13;;;;;;;9.00;3.95;;;;;;;5.25;61.04;102529.38;5024424;28;20042;-82
2022/01/15 08:30:38;;;;;;;7.80;3.95;;;;;;;5.36;60.65;102523.69;5021696;28;20040;-82
2022/01/15 08:33:03;;;;;;;8.65;4.18;;;;;;;5.41;60.49;102518.69;5023131;28;20060;-82
2022/01/15 08:35:29;;;;;;;9.07;4.63;;;;;;;5.30;60.89;102518.34;5025030;28;20382;-82
2022/01/15 08:37:55;;;;;;;7.88;4.63;;;;;;;5.13;61.61;102526.44;5030456;28;20037;-82
2022/01/15 08:40:20;;;;;;;8.60;4.45;;;;;;;5.41;60.73;102510.94;5023979;28;20029;-83
2022/01/15 08:42:47;;;;;;;8.55;4.45;;;;;;;5.56;60.32;102515.66;5034621;28;20056;-83
2022/01/15 08:45:14;;;;;;;9.15;4.15;;;;;;;5.53;60.07;102519.03;5029303;28;20100;-82
2022/01/15 08:47:39;;;;;;;9.85;5.03;;;;;;;5.55;60.51;102519.03;5031923;28;20487;-82
2022/01/15 08:50:07;;;;;;;6.65;3.72;;;;;;;5.60;60.36;102515.75;5025307;28;20025;-82
2022/01/15 08:52:33;;;;;;;9.63;4.30;;;;;;;5.52;60.51;102517.25;5028340;28;20041;-82
2022/01/15 08:54:58;;;;;;;8.63;4.32;;;;;;;5.48;60.43;102518.00;5029784;28;20069;-83
2022/01/15 08:57:24;;;;;;;10.30;4.63;;;;;;;5.67;59.72;102512.53;5027903;28;20037;-82
2022/01/15 08:59:50;;;;;;;9.10;4.45;;;;;;;5.48;60.40;102511.16;5030151;28;20040;-82
2022/01/15 09:02:16;;;;;;;8.32;4.28;;;;;;;5.37;60.75;102516.84;5030488;28;20035;-82
2022/01/15 09:04:41;;;;;;;8.20;4.80;;;;;;;5.59;60.59;102513.16;5030674;28;20120;-82
2022/01/15 09:07:08;;;;;;;8.88;4.32;;;;;;;5.37;60.97;102516.84;5025315;28;20056;-82
2022/01/15 09:09:33;;;;;;;8.18;4.63;;;;;;;5.46;60.86;102515.41;5029068;28;20172;-83
2022/01/15 09:11:59;;;;;;;8.13;4.15;;;;;;;5.44;60.71;102514.47;5030186;28;20504;-82
2022/01/15 09:14:25;;;;;;;7.70;4.40;;;;;;;5.26;61.84;102520.81;5029366;28;20512;-83
2022/01/15 09:16:50;;;;;;;7.93;4.10;;;;;;;5.57;60.31;102514.78;5030235;28;20032;-83
2022/01/15 09:19:16;;;;;;;6.25;3.63;;;;;;;5.53;60.85;102520.72;5026792;28;20034;-83
2022/01/15 09:21:41;;;;;;;7.43;4.43;;;;;;;5.53;60.35;102515.56;5027790;28;20072;-83
2022/01/15 09:24:07;;;;;;;6.95;4.15;;;;;;;5.42;61.62;102516.13;5029056;28;20124;-82
2022/01/15 09:30:12;;;;;;;8.27;3.97;;;;;;;5.58;60.64;102511.41;5027504;28;20164;-83
2022/01/15 09:32:14;;;;;;;6.22;3.35;;;;;;;5.42;60.43;102505.81;5027784;28;20116;-83
2022/01/15 09:34:40;;;;;;;7.53;4.25;;;;;;;5.38;60.42;102504.00;5024739;28;20117;-83
2022/01/15 09:37:07;;;;;;;5.78;3.50;;;;;;;5.44;61.39;102503.31;5026161;28;20072;-83
2022/01/15 09:39:33;;;;;;;7.13;3.50;;;;;;;5.51;61.07;102500.03;5026785;28;20565;-83
2022/01/15 09:41:59;;;;;;;6.75;4.28;;;;;;;5.52;60.74;102495.75;5027052;28;20655;-83
2022/01/15 09:44:25;;;;;;;5.85;3.50;;;;;;;5.57;61.35;102496.75;5027928;28;20045;-82
2022/01/15 09:46:52;;;;;;;6.55;3.60;;;;;;;5.62;60.83;102495.19;5028719;28;20056;-82
2022/01/15 09:49:20;;;;;;;7.38;4.03;;;;;;;5.76;60.58;102493.84;5027317;28;20045;-83
2022/01/15 09:51:47;;;;;;;7.05;3.78;;;;;;;5.77;59.67;102496.44;5061142;28;20460;-83
2022/01/15 09:54:14;;;;;;;6.70;3.80;;;;;;;5.82;59.85;102501.75;5028448;28;20117;-83
2022/01/15 09:56:40;;;;;;;6.90;4.15;;;;;;;5.61;61.07;102501.16;5029276;28;20410;-83
2022/01/15 09:59:06;;;;;;;5.53;3.58;;;;;;;5.76;59.92;102497.31;5023253;28;20028;-83
2022/01/15 10:01:31;;;;;;;7.75;4.18;;;;;;;5.79;60.10;102491.34;5029410;28;20046;-83
2022/01/15 10:03:58;;;;;;;7.72;4.35;;;;;;;5.60;60.56;102484.81;5028176;28;20037;-82
2022/01/15 10:06:24;;;;;;;8.48;4.38;;;;;;;5.83;60.67;102477.72;5029265;28;20693;-83
2022/01/15 10:09:09;;;;;;;8.95;5.20;;;;;;;5.95;59.56;102480.59;5027796;28;20041;-83
2022/01/15 10:11:52;;;;;;;11.38;5.15;;;;;;;5.80;60.26;102477.63;5026328;28;20021;-83
2022/01/15 10:14:35;;;;;;;9.40;4.20;;;;;;;5.92;59.56;102476.22;5030248;28;20068;-83
2022/01/15 10:17:19;;;;;;;10.48;4.55;;;;;;;5.84;60.13;102472.56;5025321;28;20053;-82
2022/01/15 10:19:44;;;;;;;9.15;4.57;;;;;;;5.76;60.71;102478.38;5030047;28;20047;-83
2022/01/15 10:22:13;;;;;;;10.85;4.43;;;;;;;6.08;59.63;102471.44;5026937;28;20037;-82
2022/01/15 10:24:40;;;;;;;7.35;4.22;;;;;;;5.77;59.95;102465.50;5028347;28;20038;-83
2022/01/15 10:27:33;;;;;;;5.65;3.67;;;;;;;5.98;59.81;102460.88;5026430;28;20132;-83
2022/01/15 10:30:11;;;;;;;8.27;4.68;;;;;;;5.93;59.77;102462.50;5028352;28;20044;-82
2022/01/15 10:32:39;;;;;;;7.22;4.57;;;;;;;5.70;61.32;102463.63;5024999;28;20017;-82
2022/01/15 10:35:14;;;;;;;8.70;4.53;;;;;;;5.89;60.04;102462.38;5025785;28;20376;-82
2022/01/15 10:37:48;;;;;;;8.82;4.38;;;;;;;5.80;60.23;102459.56;5027271;28;20095;-83
2022/01/15 10:40:14;;;;;;;11.65;4.88;;;;;;;5.79;60.25;102456.13;5026941;28;20049;-83
2022/01/15 10:42:39;;;;;;;9.25;6.22;;;;;;;5.72;61.08;102459.38;5027522;28;20037;-83
2022/01/15 10:45:10;;;;;;;11.65;5.40;;;;;;;5.93;59.72;102452.16;5027752;28;20052;-83
2022/01/15 10:47:42;;;;;;;9.45;5.32;;;;;;;5.83;59.32;102442.44;5025783;28;20036;-82
2022/01/15 10:50:09;;;;;;;9.05;6.25;;;;;;;5.99;59.60;102438.56;5022514;28;20100;-82
2022/01/15 10:52:35;;;;;;;9.00;6.07;;;;;;;5.85;60.04;102437.34;5024632;28;20040;-82
2022/01/15 10:55:12;;;;;;;8.88;6.45;;;;;;;5.97;60.20;102437.66;5028507;28;20045;-82
2022/01/15 10:57:43;;;;;;;8.82;5.95;;;;;;;5.97;58.67;102435.94;5024772;28;20495;-82
2022/01/15 11:00:19;;;;;;;7.40;4.40;;;;;;;5.74;60.75;102436.22;5027835;28;20414;-83
2022/01/15 11:02:50;;;;;;;8.48;4.40;;;;;;;5.95;59.92;102435.03;5024697;28;20063;-83
2022/01/15 11:05:24;;;;;;;5.85;3.75;;;;;;;6.02;59.64;102434.34;5027142;28;20488;-83
2022/01/15 11:07:50;;;;;;;7.90;4.20;;;;;;;5.99;59.83;102425.66;5026441;28;20513;-84
2022/01/15 11:10:16;;;;;;;7.72;4.60;;;;;;;5.77;60.25;102428.56;5028957;28;20061;-83
2022/01/15 11:12:41;;;;;;;6.50;3.47;;;;;;;5.81;60.68;102427.78;5031371;28;20041;-84
2022/01/15 11:15:08;;;;;;;5.88;3.78;;;;;;;5.65;60.76;102433.41;5026253;28;20041;-83
2022/01/15 11:17:34;;;;;;;6.80;4.20;;;;;;;5.82;60.25;102422.69;5028178;28;20037;-83
2022/01/15 11:20:04;;;;;;;8.27;4.30;;;;;;;5.74;60.38;102428.47;5028777;28;20038;-84
2022/01/15 11:22:32;;;;;;;8.13;4.32;;;;;;;5.96;60.56;102425.56;5026598;28;20045;-84
2022/01/15 11:25:00;;;;;;;8.75;4.20;;;;;;;5.92;60.00;102416.88;5028154;28;20578;-84
2022/01/15 11:27:29;;;;;;;7.28;4.40;;;;;;;5.79;61.04;102413.97;5028379;28;20045;-83
2022/01/15 11:29:58;;;;;;;6.93;4.22;;;;;;;5.88;60.25;102415.09;5026173;28;20046;-84
2022/01/15 11:32:26;;;;;;;6.55;4.03;;;;;;;5.70;60.50;102417.22;5026024;28;20087;-85
2022/01/15 11:35:08;;;;;;;6.43;3.72;;;;;;;6.06;59.79;102416.34;5027431;28;20048;-85
2022/01/15 11:37:46;;;;;;;5.80;3.53;;;;;;;5.73;60.81;102412.13;5027603;28;20037;-85
2022/01/15 11:40:34;;;;;;;7.88;4.55;;;;;;;5.95;60.08;102409.22;5026932;28;20061;-84
2022/01/15 11:43:25;;;;;;;9.45;4.57;;;;;;;6.09;59.39;102414.72;5021508;28;20065;-84
2022/01/15 11:45:52;;;;;;;8.10;4.90;;;;;;;6.28;58.95;102408.25;5024040;28;20029;-84
2022/01/15 11:48:27;;;;;;;6.85;4.38;;;;;;;6.01;59.59;102417.09;5025864;28;20041;-84
2022/01/15 11:51:14;;;;;;;7.40;4.80;;;;;;;6.22;58.68;102409.00;5028164;28;20658;-84
2022/01/15 11:54:00;;;;;;;7.00;4.28;;;;;;;5.97;60.13;102402.41;5057581;28;20025;-84